Time;durP1;ratioP1;P1;durP2;ratioP2;P2;SDS_P1;SDS_P2;PMS_P1;PMS_P2;Temp;Humidity;BMP_temperature;BMP_pressure;BME280_temperature;BME280_humidity;BME280_pressure;Samples;Min_cycle;Max_cycle;Signal;HPM_P1;HPM_P2
2022/03/30 00:00:18;;;;;;;;;;;7.80;91.10;;;;;;5050458;28;19958;-73
2022/03/30 00:02:44;;;;;;;;;;;7.80;91.30;;;;;;5049908;28;19909;-74
2022/03/30 00:05:10;;;;;;;;;;;7.70;91.30;;;;;;5038639;28;20008;-73
2022/03/30 00:07:35;;;;;;;;;;;7.90;91.20;;;;;;5032803;28;19982;-71
2022/03/30 00:10:02;;;;;;;;;;;8.00;91.20;;;;;;5031356;28;19910;-71
2022/03/30 00:12:28;;;;;;;;;;;8.00;91.10;;;;;;5032796;28;19945;-73
2022/03/30 00:14:53;;;;;;;;;;;8.10;91.00;;;;;;5034609;28;20353;-73
2022/03/30 00:17:19;;;;;;;;;;;8.20;91.10;;;;;;5034734;28;19921;-72
2022/03/30 00:19:45;;;;;;;;;;;8.20;91.10;;;;;;5034630;28;19945;-72
2022/03/30 00:22:10;;;;;;;;;;;8.10;91.50;;;;;;5042313;28;19914;-72
2022/03/30 00:24:36;;;;;;;;;;;8.20;91.20;;;;;;5053545;28;19915;-73
2022/03/30 00:27:02;;;;;;;;;;;8.40;90.60;;;;;;5053689;28;20425;-72
2022/03/30 00:29:28;;;;;;;;;;;8.60;90.00;;;;;;5053692;28;19909;-73
2022/03/30 00:31:54;;;;;;;;;;;8.60;90.00;;;;;;5053462;28;19963;-72
2022/03/30 00:34:19;;;;;;;;;;;8.50;90.20;;;;;;5040515;28;20293;-72
2022/03/30 00:36:45;;;;;;;;;;;8.50;90.30;;;;;;5046324;28;20482;-72
2022/03/30 00:39:10;;;;;;;;;;;8.50;90.30;;;;;;5034288;28;20389;-72
2022/03/30 00:41:36;;;;;;;;;;;8.40;90.60;;;;;;5034264;28;20010;-72
2022/03/30 00:44:08;;;;;;;;;;;8.40;90.50;;;;;;5040179;28;19909;-71
2022/03/30 00:46:34;;;;;;;;;;;8.30;90.50;;;;;;5053819;28;19909;-71
2022/03/30 00:49:01;;;;;;;;;;;8.40;90.20;;;;;;5056929;28;19931;-71
2022/03/30 00:51:26;;;;;;;;;;;8.40;90.40;;;;;;5054115;28;19948;-73
2022/03/30 00:53:52;;;;;;;;;;;8.30;91.00;;;;;;5053019;28;20405;-72
2022/03/30 00:56:17;;;;;;;;;;;8.20;91.40;;;;;;5053186;28;19915;-72
2022/03/30 00:58:43;;;;;;;;;;;8.20;91.30;;;;;;5053012;28;19909;-72
2022/03/30 01:01:08;;;;;;;;;;;8.10;91.70;;;;;;5052837;28;19912;-72
2022/03/30 01:03:35;;;;;;;;;;;8.10;91.50;;;;;;5046667;28;19909;-72
2022/03/30 01:06:01;;;;;;;;;;;8.20;91.40;;;;;;5044921;28;19909;-72
2022/03/30 01:08:26;;;;;;;;;;;8.30;91.10;;;;;;5037079;28;19909;-72
2022/03/30 01:10:52;;;;;;;;;;;8.40;90.80;;;;;;5033695;28;19909;-72
2022/03/30 01:13:18;;;;;;;;;;;8.40;90.60;;;;;;5033571;28;20381;-72
2022/03/30 01:15:45;;;;;;;;;;;8.40;90.70;;;;;;5033520;28;19916;-72
2022/03/30 01:18:10;;;;;;;;;;;8.30;91.70;;;;;;5033603;28;19917;-72
2022/03/30 01:20:37;;;;;;;;;;;8.30;91.40;;;;;;5033327;28;19913;-72
2022/03/30 01:23:03;;;;;;;;;;;8.30;91.20;;;;;;5032785;28;19919;-72
2022/03/30 01:25:28;;;;;;;;;;;8.30;91.20;;;;;;5033168;28;19909;-72
2022/03/30 01:27:53;;;;;;;;;;;8.20;91.40;;;;;;5033242;28;19909;-72
2022/03/30 01:33:07;;;;;;;;;;;8.30;91.30;;;;;;5033193;28;19917;-73
2022/03/30 01:35:33;;;;;;;;;;;8.30;91.10;;;;;;5045199;28;19913;-72
2022/03/30 01:37:58;;;;;;;;;;;8.30;91.30;;;;;;5034213;28;19913;-72
2022/03/30 01:40:24;;;;;;;;;;;8.30;91.50;;;;;;5033137;28;20281;-72
2022/03/30 01:42:49;;;;;;;;;;;8.20;92.00;;;;;;5032841;28;19909;-73
2022/03/30 01:45:16;;;;;;;;;;;8.30;91.50;;;;;;5050397;28;19909;-72
2022/03/30 01:47:52;;;;;;;;;;;8.50;91.00;;;;;;5052278;28;20324;-72
2022/03/30 01:50:18;;;;;;;;;;;8.40;91.80;;;;;;5051932;28;19966;-72
2022/03/30 01:52:43;;;;;;;;;;;8.30;92.00;;;;;;5051931;28;19909;-72
2022/03/30 01:55:09;;;;;;;;;;;8.20;92.30;;;;;;5051887;28;19909;-72
2022/03/30 01:57:34;;;;;;;;;;;8.20;92.30;;;;;;5051968;28;19909;-72
2022/03/30 02:00:03;;;;;;;;;;;8.30;91.80;;;;;;5051827;28;19916;-72
2022/03/30 02:02:29;;;;;;;;;;;8.30;92.10;;;;;;5052320;28;20003;-72
2022/03/30 02:04:55;;;;;;;;;;;8.30;92.10;;;;;;5039141;28;20433;-72
2022/03/30 02:07:20;;;;;;;;;;;8.10;92.80;;;;;;5039182;28;19916;-73
2022/03/30 02:09:46;;;;;;;;;;;8.10;92.30;;;;;;5032650;28;20000;-72
2022/03/30 02:12:11;;;;;;;;;;;8.10;92.60;;;;;;5032384;28;19909;-72
2022/03/30 02:14:37;;;;;;;;;;;8.10;92.30;;;;;;5032379;28;19956;-73
2022/03/30 02:17:03;;;;;;;;;;;8.20;92.10;;;;;;5032471;28;19921;-72
2022/03/30 02:19:29;;;;;;;;;;;8.20;92.40;;;;;;5032222;28;19913;-72
2022/03/30 02:21:54;;;;;;;;;;;8.10;92.80;;;;;;5032214;28;19919;-72
2022/03/30 02:24:22;;;;;;;;;;;8.00;93.20;;;;;;5031405;28;20294;-72
2022/03/30 02:26:48;;;;;;;;;;;8.00;93.40;;;;;;5032314;28;19917;-72
2022/03/30 02:29:14;;;;;;;;;;;8.00;93.20;;;;;;5032457;28;20008;-72
2022/03/30 02:31:41;;;;;;;;;;;8.10;92.70;;;;;;5032149;28;19909;-72
2022/03/30 02:34:07;;;;;;;;;;;8.20;92.80;;;;;;5038174;28;19909;-72
2022/03/30 02:36:33;;;;;;;;;;;8.10;92.80;;;;;;5037833;28;19955;-72
2022/03/30 02:38:58;;;;;;;;;;;8.10;92.70;;;;;;5050357;28;19994;-72
2022/03/30 02:41:24;;;;;;;;;;;8.20;92.80;;;;;;5032807;28;19919;-72
2022/03/30 02:43:50;;;;;;;;;;;8.10;93.20;;;;;;5031919;28;19909;-73
2022/03/30 02:46:15;;;;;;;;;;;8.10;93.70;;;;;;5032074;28;20266;-73
2022/03/30 02:48:41;;;;;;;;;;;8.10;94.00;;;;;;5032032;28;19941;-72
2022/03/30 02:51:07;;;;;;;;;;;8.20;93.60;;;;;;5032039;28;20153;-72
2022/03/30 02:53:33;;;;;;;;;;;8.20;94.20;;;;;;5031723;28;20370;-72
2022/03/30 02:55:58;;;;;;;;;;;8.30;94.20;;;;;;5031915;28;19916;-72
2022/03/30 02:58:24;;;;;;;;;;;8.20;94.40;;;;;;5031964;28;19909;-73
2022/03/30 03:00:50;;;;;;;;;;;8.10;95.20;;;;;;5031747;28;19920;-72
2022/03/30 03:03:15;;;;;;;;;;;8.10;94.70;;;;;;5031513;28;19913;-72
2022/03/30 03:05:41;;;;;;;;;;;8.20;94.80;;;;;;5032086;28;20248;-72
2022/03/30 03:08:08;;;;;;;;;;;8.00;95.50;;;;;;5042904;28;19913;-72
2022/03/30 03:10:35;;;;;;;;;;;7.90;96.00;;;;;;5046900;28;20282;-73
2022/03/30 03:13:03;;;;;;;;;;;7.90;96.60;;;;;;5050819;28;19916;-72
2022/03/30 03:15:29;;;;;;;;;;;8.00;95.80;;;;;;5032096;28;19909;-72
2022/03/30 03:17:55;;;;;;;;;;;7.90;96.00;;;;;;5031797;28;19963;-72
2022/03/30 03:20:21;;;;;;;;;;;7.90;96.10;;;;;;5031912;28;19909;-72
2022/03/30 03:22:46;;;;;;;;;;;7.80;96.60;;;;;;5031542;28;19909;-72
2022/03/30 03:25:12;;;;;;;;;;;7.80;97.60;;;;;;5035811;28;20381;-72
2022/03/30 03:27:38;;;;;;;;;;;7.80;98.10;;;;;;5051195;28;19940;-72
2022/03/30 03:30:05;;;;;;;;;;;7.70;98.50;;;;;;5050637;28;19909;-72
2022/03/30 03:32:30;;;;;;;;;;;7.90;98.70;;;;;;5046065;28;19917;-73
2022/03/30 03:34:56;;;;;;;;;;;7.90;99.00;;;;;;5031412;28;19955;-72
2022/03/30 03:37:22;;;;;;;;;;;7.90;99.90;;;;;;5039019;28;19917;-72
2022/03/30 03:39:47;;;;;;;;;;;7.80;99.90;;;;;;5036814;28;20447;-72
2022/03/30 03:42:13;;;;;;;;;;;7.70;99.90;;;;;;5034270;28;20011;-72
2022/03/30 03:44:39;;;;;;;;;;;7.60;99.90;;;;;;5031724;28;20266;-73
2022/03/30 03:47:07;;;;;;;;;;;7.50;99.90;;;;;;5033220;28;19938;-72
2022/03/30 03:49:33;;;;;;;;;;;7.50;99.90;;;;;;5035189;28;20350;-72
2022/03/30 03:51:58;;;;;;;;;;;7.50;99.90;;;;;;5035086;28;19909;-72
2022/03/30 03:54:24;;;;;;;;;;;7.50;99.90;;;;;;5035004;28;19919;-72
2022/03/30 03:56:50;;;;;;;;;;;7.60;99.90;;;;;;5035077;28;19909;-72
2022/03/30 03:59:15;;;;;;;;;;;7.70;99.90;;;;;;5034970;28;20394;-73
2022/03/30 04:01:40;;;;;;;;;;;7.70;99.90;;;;;;5034879;28;20366;-72
2022/03/30 04:04:06;;;;;;;;;;;7.80;99.90;;;;;;5034787;28;19909;-72
2022/03/30 04:06:32;;;;;;;;;;;7.80;99.90;;;;;;5035653;28;19909;-72
2022/03/30 04:08:58;;;;;;;;;;;7.80;99.90;;;;;;5047830;28;20385;-73
2022/03/30 04:11:23;;;;;;;;;;;7.80;99.90;;;;;;5036122;28;19931;-73
2022/03/30 04:13:49;;;;;;;;;;;7.70;99.90;;;;;;5034683;28;19964;-72
2022/03/30 04:16:16;;;;;;;;;;;7.60;99.90;;;;;;5034639;28;20298;-72
2022/03/30 04:18:41;;;;;;;;;;;7.60;99.90;;;;;;5034829;28;20370;-72
2022/03/30 04:21:07;;;;;;;;;;;7.50;99.90;;;;;;5034527;28;19963;-72
2022/03/30 04:23:32;;;;;;;;;;;7.50;99.90;;;;;;5032972;28;19913;-72
2022/03/30 04:25:58;;;;;;;;;;;7.40;99.90;;;;;;5034501;28;19971;-72
2022/03/30 04:28:23;;;;;;;;;;;7.40;99.90;;;;;;5034708;28;19909;-74
2022/03/30 04:30:49;;;;;;;;;;;7.40;99.90;;;;;;5034466;28;19941;-72
2022/03/30 04:33:14;;;;;;;;;;;7.30;99.90;;;;;;5034355;28;20385;-72
2022/03/30 04:35:40;;;;;;;;;;;7.30;99.90;;;;;;5033118;28;19913;-72
2022/03/30 04:38:05;;;;;;;;;;;7.30;99.90;;;;;;5038107;28;19909;-72
2022/03/30 04:40:31;;;;;;;;;;;7.20;99.90;;;;;;5043483;28;19917;-72
2022/03/30 04:42:57;;;;;;;;;;;7.20;99.90;;;;;;5034414;28;20306;-73
2022/03/30 04:45:22;;;;;;;;;;;7.10;99.90;;;;;;5034102;28;19913;-73
2022/03/30 04:47:48;;;;;;;;;;;7.00;99.90;;;;;;5034454;28;19972;-74
2022/03/30 04:50:14;;;;;;;;;;;7.00;99.90;;;;;;5034339;28;19916;-73
2022/03/30 04:52:40;;;;;;;;;;;6.90;99.90;;;;;;5034250;28;19909;-73
2022/03/30 04:55:06;;;;;;;;;;;6.80;99.90;;;;;;5034030;28;19917;-73
2022/03/30 04:57:31;;;;;;;;;;;6.80;99.90;;;;;;5033832;28;19915;-73
2022/03/30 04:59:57;;;;;;;;;;;6.80;99.90;;;;;;5033069;28;19913;-73
2022/03/30 05:02:23;;;;;;;;;;;6.80;99.90;;;;;;5033879;28;19917;-73
2022/03/30 05:04:48;;;;;;;;;;;6.90;99.90;;;;;;5033670;28;19913;-73
2022/03/30 05:07:14;;;;;;;;;;;6.90;99.90;;;;;;5037959;28;20394;-73
2022/03/30 05:09:40;;;;;;;;;;;6.80;99.90;;;;;;5039147;28;19962;-73
2022/03/30 05:12:06;;;;;;;;;;;6.80;99.90;;;;;;5038091;28;20035;-72
2022/03/30 05:14:32;;;;;;;;;;;6.80;99.90;;;;;;5033342;28;19913;-73
2022/03/30 05:16:59;;;;;;;;;;;6.80;99.90;;;;;;5033555;28;19923;-73
2022/03/30 05:19:24;;;;;;;;;;;6.80;99.90;;;;;;5033581;28;19924;-72
2022/03/30 05:21:50;;;;;;;;;;;6.70;99.90;;;;;;5039754;28;19980;-73
2022/03/30 05:24:15;;;;;;;;;;;6.80;99.90;;;;;;5032897;28;20417;-73
2022/03/30 05:26:41;;;;;;;;;;;6.80;99.90;;;;;;5033201;28;19916;-73
2022/03/30 05:29:06;;;;;;;;;;;6.80;99.90;;;;;;5032936;28;20128;-73
2022/03/30 05:31:32;;;;;;;;;;;6.80;99.90;;;;;;5032755;28;19917;-73
2022/03/30 05:33:57;;;;;;;;;;;6.70;99.90;;;;;;5032793;28;19960;-73
2022/03/30 05:36:23;;;;;;;;;;;6.80;99.90;;;;;;5039003;28;20359;-73
2022/03/30 05:38:50;;;;;;;;;;;6.80;99.90;;;;;;5050612;28;19962;-72
2022/03/30 05:41:17;;;;;;;;;;;6.80;99.90;;;;;;5034827;28;19917;-73
2022/03/30 05:43:42;;;;;;;;;;;6.90;99.90;;;;;;5032479;28;19947;-72
2022/03/30 05:46:08;;;;;;;;;;;6.90;99.90;;;;;;5032845;28;20381;-73
2022/03/30 05:48:34;;;;;;;;;;;6.90;99.90;;;;;;5032830;28;20008;-73
2022/03/30 05:50:59;;;;;;;;;;;6.90;99.90;;;;;;5032556;28;20402;-72
2022/03/30 05:53:25;;;;;;;;;;;6.90;99.90;;;;;;5032137;28;19916;-73
2022/03/30 05:55:50;;;;;;;;;;;6.90;99.90;;;;;;5032594;28;19909;-73
2022/03/30 05:58:16;;;;;;;;;;;6.80;99.90;;;;;;5032395;28;19910;-73
2022/03/30 06:00:42;;;;;;;;;;;6.80;99.90;;;;;;5032371;28;19920;-72
2022/03/30 06:03:08;;;;;;;;;;;6.80;99.90;;;;;;5036340;28;20111;-73
2022/03/30 06:05:33;;;;;;;;;;;6.90;99.90;;;;;;5051631;28;20410;-73
2022/03/30 06:07:59;;;;;;;;;;;6.90;99.90;;;;;;5042027;28;19935;-73
2022/03/30 06:10:28;;;;;;;;;;;6.90;99.90;;;;;;5042286;28;19943;-73
2022/03/30 06:12:54;;;;;;;;;;;6.90;99.90;;;;;;5032105;28;19913;-72
2022/03/30 06:15:20;;;;;;;;;;;6.80;99.90;;;;;;5041829;28;19909;-72
2022/03/30 06:17:47;;;;;;;;;;;6.80;99.90;;;;;;5041988;28;19917;-72
2022/03/30 06:20:13;;;;;;;;;;;6.80;99.90;;;;;;5035122;28;19909;-73
2022/03/30 06:22:41;;;;;;;;;;;6.90;99.90;;;;;;5050154;28;20007;-72
2022/03/30 06:25:07;;;;;;;;;;;6.90;99.90;;;;;;5051237;28;19979;-73
2022/03/30 06:27:32;;;;;;;;;;;6.90;99.90;;;;;;5048602;28;19924;-73
2022/03/30 06:29:58;;;;;;;;;;;6.90;99.90;;;;;;5034997;28;20285;-72
2022/03/30 06:32:23;;;;;;;;;;;6.90;99.90;;;;;;5038479;28;19909;-72
2022/03/30 06:34:49;;;;;;;;;;;6.90;99.90;;;;;;5042723;28;20285;-73
2022/03/30 06:37:14;;;;;;;;;;;6.90;99.90;;;;;;5033301;28;19909;-73
2022/03/30 06:39:40;;;;;;;;;;;6.90;99.90;;;;;;5036680;28;19955;-73
2022/03/30 06:42:06;;;;;;;;;;;6.90;99.90;;;;;;5034386;28;20599;-72
2022/03/30 06:44:32;;;;;;;;;;;6.80;99.90;;;;;;5032193;28;19916;-72
2022/03/30 06:46:57;;;;;;;;;;;6.90;99.90;;;;;;5049252;28;19912;-73
2022/03/30 06:49:23;;;;;;;;;;;6.90;99.90;;;;;;5034942;28;20263;-73
2022/03/30 06:51:48;;;;;;;;;;;7.00;99.90;;;;;;5043707;28;20012;-72
2022/03/30 06:54:14;;;;;;;;;;;7.00;99.90;;;;;;5032817;28;19909;-72
2022/03/30 06:56:40;;;;;;;;;;;7.00;99.90;;;;;;5040988;28;19913;-73
2022/03/30 06:59:05;;;;;;;;;;;7.10;99.90;;;;;;5038198;28;20281;-73
2022/03/30 07:01:31;;;;;;;;;;;7.10;99.90;;;;;;5050450;28;20424;-72
2022/03/30 07:03:56;;;;;;;;;;;7.10;99.90;;;;;;5050272;28;19944;-73
2022/03/30 07:06:22;;;;;;;;;;;7.10;99.90;;;;;;5034550;28;19909;-73
2022/03/30 07:11:31;;;;;;;;;;;7.20;99.90;;;;;;5033345;28;19963;-73
2022/03/30 07:13:59;;;;;;;;;;;7.20;99.90;;;;;;5049258;28;19913;-73
2022/03/30 07:16:25;;;;;;;;;;;7.20;99.90;;;;;;5031154;28;19925;-72
2022/03/30 07:18:51;;;;;;;;;;;7.20;99.90;;;;;;5031340;28;19932;-73
2022/03/30 07:21:16;;;;;;;;;;;7.20;99.90;;;;;;5030946;28;19913;-72
2022/03/30 07:23:42;;;;;;;;;;;7.20;99.90;;;;;;5036287;28;20374;-73
2022/03/30 07:26:08;;;;;;;;;;;7.20;99.90;;;;;;5046400;28;20368;-73
2022/03/30 07:28:35;;;;;;;;;;;7.20;99.90;;;;;;5058984;28;19982;-72
2022/03/30 07:31:01;;;;;;;;;;;7.20;99.90;;;;;;5055387;28;20314;-73
2022/03/30 07:33:26;;;;;;;;;;;7.30;99.90;;;;;;5034469;28;20063;-73
2022/03/30 07:35:52;;;;;;;;;;;7.30;99.90;;;;;;5050035;28;19920;-73
2022/03/30 07:38:18;;;;;;;;;;;7.30;99.90;;;;;;5038000;28;20614;-73
2022/03/30 07:40:45;;;;;;;;;;;7.40;99.90;;;;;;5047394;28;20054;-72
2022/03/30 07:43:12;;;;;;;;;;;7.40;99.90;;;;;;5037917;28;19909;-73
2022/03/30 07:45:38;;;;;;;;;;;7.50;99.90;;;;;;5035089;28;19991;-72
2022/03/30 07:48:03;;;;;;;;;;;7.60;99.90;;;;;;5040293;28;19948;-74
2022/03/30 07:50:29;;;;;;;;;;;7.60;99.90;;;;;;5049205;28;19910;-72
2022/03/30 07:52:55;;;;;;;;;;;7.80;99.90;;;;;;5037523;28;19915;-73
2022/03/30 07:55:20;;;;;;;;;;;7.80;99.90;;;;;;5038884;28;20444;-73
2022/03/30 07:57:46;;;;;;;;;;;7.80;99.90;;;;;;5050404;28;19909;-72
2022/03/30 08:00:16;;;;;;;;;;;7.80;99.90;;;;;;5034088;28;19953;-72
2022/03/30 08:02:42;;;;;;;;;;;7.90;99.90;;;;;;5042840;28;19940;-73
2022/03/30 08:05:12;;;;;;;;;;;7.90;99.90;;;;;;5039110;28;20337;-72
2022/03/30 08:07:38;;;;;;;;;;;7.80;99.90;;;;;;5034859;28;19937;-73
2022/03/30 08:10:04;;;;;;;;;;;7.70;99.90;;;;;;5035394;28;19909;-72
2022/03/30 08:12:29;;;;;;;;;;;7.70;99.90;;;;;;5050981;28;19963;-72
2022/03/30 08:14:55;;;;;;;;;;;7.70;99.90;;;;;;5036404;28;19999;-73
2022/03/30 08:17:21;;;;;;;;;;;7.70;99.90;;;;;;5032941;28;19917;-72
2022/03/30 08:19:47;;;;;;;;;;;7.80;99.90;;;;;;5033952;28;19944;-72
2022/03/30 08:22:28;;;;;;;;;;;7.80;99.90;;;;;;5034167;28;19913;-72
2022/03/30 08:24:54;;;;;;;;;;;7.90;99.90;;;;;;5034049;28;20008;-74
2022/03/30 08:27:21;;;;;;;;;;;8.00;99.90;;;;;;5034132;28;19909;-72
2022/03/30 08:29:47;;;;;;;;;;;8.10;99.90;;;;;;5034165;28;19910;-72
2022/03/30 08:32:14;;;;;;;;;;;8.30;99.90;;;;;;5033550;28;19913;-74
2022/03/30 08:34:40;;;;;;;;;;;8.40;99.90;;;;;;5033777;28;19980;-74
2022/03/30 08:37:05;;;;;;;;;;;8.50;99.90;;;;;;5033553;28;20406;-74
2022/03/30 08:39:32;;;;;;;;;;;8.70;99.90;;;;;;5037932;28;20191;-74
2022/03/30 08:41:58;;;;;;;;;;;8.80;99.90;;;;;;5037346;28;19924;-73
2022/03/30 08:44:23;;;;;;;;;;;8.80;99.90;;;;;;5032371;28;19910;-74
2022/03/30 08:46:49;;;;;;;;;;;8.80;99.90;;;;;;5033671;28;19983;-74
2022/03/30 08:49:15;;;;;;;;;;;8.80;99.90;;;;;;5035442;28;19915;-74
2022/03/30 08:51:42;;;;;;;;;;;8.80;99.90;;;;;;5037228;28;19909;-73
2022/03/30 08:54:12;;;;;;;;;;;8.90;99.90;;;;;;5036486;28;20033;-74
2022/03/30 08:56:39;;;;;;;;;;;8.80;99.90;;;;;;5049892;28;19963;-73
2022/03/30 08:59:06;;;;;;;;;;;8.70;99.90;;;;;;5039807;28;20314;-73
2022/03/30 09:01:35;;;;;;;;;;;8.60;99.90;;;;;;5033114;28;20012;-73
2022/03/30 09:04:02;;;;;;;;;;;8.60;99.90;;;;;;5033307;28;19975;-73
2022/03/30 09:06:48;;;;;;;;;;;8.50;99.90;;;;;;5033897;28;19920;-73
2022/03/30 09:09:15;;;;;;;;;;;8.50;99.90;;;;;;5036569;28;20285;-73
2022/03/30 09:11:53;;;;;;;;;;;8.60;99.90;;;;;;5046873;28;20540;-73
2022/03/30 09:14:19;;;;;;;;;;;8.80;99.90;;;;;;5033400;28;20374;-73
2022/03/30 09:16:47;;;;;;;;;;;9.00;99.90;;;;;;5033135;28;19917;-74
2022/03/30 09:19:13;;;;;;;;;;;9.10;99.90;;;;;;5043124;28;19919;-73
2022/03/30 09:21:46;;;;;;;;;;;9.00;99.90;;;;;;5043573;28;19913;-73
2022/03/30 09:24:13;;;;;;;;;;;9.20;99.90;;;;;;5038882;28;19909;-74
2022/03/30 09:26:38;;;;;;;;;;;9.30;99.90;;;;;;5033016;28;20446;-73
2022/03/30 09:29:04;;;;;;;;;;;9.20;99.90;;;;;;5033364;28;20005;-73
2022/03/30 09:31:30;;;;;;;;;;;9.30;99.90;;;;;;5032856;28;19916;-73
2022/03/30 09:34:00;;;;;;;;;;;9.40;99.90;;;;;;5039166;28;20434;-74
2022/03/30 09:36:30;;;;;;;;;;;9.40;99.90;;;;;;5036641;28;20385;-73
2022/03/30 09:38:56;;;;;;;;;;;9.40;99.90;;;;;;5033993;28;19909;-73
2022/03/30 09:41:22;;;;;;;;;;;9.40;99.90;;;;;;5045212;28;20000;-74
2022/03/30 09:43:47;;;;;;;;;;;9.40;99.90;;;;;;5042064;28;20012;-74
2022/03/30 09:46:15;;;;;;;;;;;9.40;99.90;;;;;;5036672;28;19916;-73
2022/03/30 09:48:51;;;;;;;;;;;9.30;99.90;;;;;;5032937;28;19909;-73
2022/03/30 09:51:18;;;;;;;;;;;9.40;99.90;;;;;;5043708;28;19916;-73
2022/03/30 09:53:43;;;;;;;;;;;9.30;99.90;;;;;;5034507;28;20421;-72
2022/03/30 09:56:14;;;;;;;;;;;9.50;99.90;;;;;;5043362;28;20163;-73
2022/03/30 09:58:40;;;;;;;;;;;9.60;99.90;;;;;;5044520;28;19928;-74
2022/03/30 10:01:10;;;;;;;;;;;9.80;99.90;;;;;;5047099;28;19913;-73
2022/03/30 10:03:48;;;;;;;;;;;10.00;99.90;;;;;;5037771;28;20293;-73
2022/03/30 10:06:24;;;;;;;;;;;10.00;99.90;;;;;;5034762;28;19936;-73
2022/03/30 10:08:51;;;;;;;;;;;10.20;99.90;;;;;;5032284;28;20091;-73
2022/03/30 10:11:17;;;;;;;;;;;10.30;99.90;;;;;;5040361;28;19915;-73
2022/03/30 10:13:43;;;;;;;;;;;10.00;99.90;;;;;;5032263;28;20289;-74
2022/03/30 10:16:10;;;;;;;;;;;10.00;99.90;;;;;;5032654;28;19925;-73
2022/03/30 10:18:36;;;;;;;;;;;10.00;99.90;;;;;;5032381;28;20027;-74
2022/03/30 10:21:11;;;;;;;;;;;10.10;99.90;;;;;;5032481;28;20410;-74
2022/03/30 10:23:55;;;;;;;;;;;10.20;99.90;;;;;;5032416;28;19937;-73
2022/03/30 10:26:39;;;;;;;;;;;10.20;99.90;;;;;;5046201;28;20275;-74
2022/03/30 10:29:07;;;;;;;;;;;10.30;99.90;;;;;;5051290;28;19909;-73
2022/03/30 10:31:34;;;;;;;;;;;10.20;99.90;;;;;;5034452;28;19948;-74
2022/03/30 10:34:19;;;;;;;;;;;10.50;99.90;;;;;;5035779;28;20334;-74
2022/03/30 10:36:57;;;;;;;;;;;10.60;99.90;;;;;;5037000;28;19948;-73
2022/03/30 10:39:26;;;;;;;;;;;11.00;99.90;;;;;;5038583;28;19916;-74
2022/03/30 10:41:52;;;;;;;;;;;11.30;99.90;;;;;;5041142;28;19914;-73
2022/03/30 10:44:36;;;;;;;;;;;11.60;99.90;;;;;;5031086;28;19924;-73
2022/03/30 10:47:05;;;;;;;;;;;12.40;99.90;;;;;;5039541;28;20362;-74
2022/03/30 10:49:44;;;;;;;;;;;12.20;99.90;;;;;;5046626;28;20300;-74
2022/03/30 10:52:24;;;;;;;;;;;12.50;99.90;;;;;;5043623;28;19951;-73
2022/03/30 10:54:55;;;;;;;;;;;12.50;99.90;;;;;;5039838;28;19913;-74
2022/03/30 10:57:42;;;;;;;;;;;12.30;99.90;;;;;;5038032;28;19909;-73
2022/03/30 11:00:15;;;;;;;;;;;12.20;99.90;;;;;;5036924;28;19913;-73
2022/03/30 11:02:40;;;;;;;;;;;11.90;99.90;;;;;;5031548;28;19920;-73
2022/03/30 11:05:10;;;;;;;;;;;11.50;99.90;;;;;;5031591;28;19909;-73
2022/03/30 11:07:36;;;;;;;;;;;11.30;99.90;;;;;;5031458;28;19916;-73
2022/03/30 11:10:25;;;;;;;;;;;11.10;99.90;;;;;;5031881;28;19909;-74
2022/03/30 11:12:57;;;;;;;;;;;10.90;99.90;;;;;;5039624;28;19916;-73
2022/03/30 11:15:23;;;;;;;;;;;10.70;99.90;;;;;;5050176;28;20285;-73
2022/03/30 11:17:49;;;;;;;;;;;10.90;99.90;;;;;;5050202;28;19924;-73
2022/03/30 11:20:19;;;;;;;;;;;11.00;99.90;;;;;;5050368;28;19915;-74
2022/03/30 11:22:46;;;;;;;;;;;11.00;99.90;;;;;;5050170;28;20435;-72
2022/03/30 11:25:23;;;;;;;;;;;11.00;99.90;;;;;;5043065;28;20282;-73
2022/03/30 11:27:58;;;;;;;;;;;11.10;99.90;;;;;;5047229;28;19915;-73
2022/03/30 11:30:24;;;;;;;;;;;11.40;99.90;;;;;;5032156;28;19920;-73
2022/03/30 11:32:50;;;;;;;;;;;11.40;99.90;;;;;;5030950;28;20012;-73
2022/03/30 11:35:17;;;;;;;;;;;11.30;99.90;;;;;;5030911;28;20007;-72
2022/03/30 11:37:44;;;;;;;;;;;11.30;99.90;;;;;;5034768;28;19909;-73
2022/03/30 11:40:12;;;;;;;;;;;11.40;99.90;;;;;;5029700;28;20000;-73
2022/03/30 11:42:40;;;;;;;;;;;11.40;99.90;;;;;;5030863;28;20318;-73
2022/03/30 11:45:13;;;;;;;;;;;11.20;99.90;;;;;;5030890;28;19935;-73
2022/03/30 11:47:52;;;;;;;;;;;11.10;99.90;;;;;;5031158;28;20325;-73
2022/03/30 11:50:24;;;;;;;;;;;11.00;99.90;;;;;;5048056;28;20277;-73
2022/03/30 11:52:56;;;;;;;;;;;10.80;99.90;;;;;;5033369;28;19920;-72
2022/03/30 11:55:22;;;;;;;;;;;10.70;99.90;;;;;;5035466;28;20203;-72
2022/03/30 11:57:50;;;;;;;;;;;10.70;99.90;;;;;;5044489;28;20319;-73
2022/03/30 12:00:16;;;;;;;;;;;10.70;99.90;;;;;;5037074;28;19963;-74
2022/03/30 12:02:43;;;;;;;;;;;10.90;99.90;;;;;;5039877;28;20263;-72
2022/03/30 12:05:08;;;;;;;;;;;11.30;99.90;;;;;;5035560;28;19982;-74
2022/03/30 12:07:35;;;;;;;;;;;11.60;99.90;;;;;;5031654;28;20236;-74
2022/03/30 12:10:02;;;;;;;;;;;11.80;99.90;;;;;;5034315;28;19913;-72
2022/03/30 12:12:30;;;;;;;;;;;11.70;99.90;;;;;;5034447;28;19965;-72
2022/03/30 12:14:57;;;;;;;;;;;11.40;99.90;;;;;;5034330;28;19910;-73
2022/03/30 12:17:23;;;;;;;;;;;11.40;99.90;;;;;;5034436;28;20397;-72
2022/03/30 12:19:49;;;;;;;;;;;11.60;99.90;;;;;;5034268;28;19909;-73
2022/03/30 12:22:16;;;;;;;;;;;11.70;99.90;;;;;;5033985;28;19920;-73
2022/03/30 12:24:42;;;;;;;;;;;11.70;99.90;;;;;;5034452;28;19916;-73
2022/03/30 12:27:07;;;;;;;;;;;11.80;99.90;;;;;;5040195;28;19958;-73
2022/03/30 12:29:33;;;;;;;;;;;11.80;99.90;;;;;;5040504;28;19913;-72
2022/03/30 12:31:59;;;;;;;;;;;11.80;99.90;;;;;;5033740;28;19913;-72
2022/03/30 12:34:26;;;;;;;;;;;12.10;99.90;;;;;;5033913;28;19913;-73
2022/03/30 12:36:58;;;;;;;;;;;12.30;99.90;;;;;;5034268;28;19916;-73
2022/03/30 12:39:23;;;;;;;;;;;12.10;99.90;;;;;;5034015;28;19971;-73
2022/03/30 12:42:17;;;;;;;;;;;12.00;99.90;;;;;;5034245;28;19913;-72
2022/03/30 12:44:47;;;;;;;;;;;12.30;99.90;;;;;;5033977;28;20452;-73
2022/03/30 12:47:28;;;;;;;;;;;11.80;99.90;;;;;;5033901;28;19971;-73
2022/03/30 12:49:54;;;;;;;;;;;11.60;99.90;;;;;;5036820;28;19916;-73
2022/03/30 12:52:21;;;;;;;;;;;11.30;99.90;;;;;;5039017;28;19909;-73
2022/03/30 12:54:48;;;;;;;;;;;11.30;99.90;;;;;;5033106;28;19963;-74
2022/03/30 12:57:25;;;;;;;;;;;11.20;99.90;;;;;;5045666;28;19909;-73
2022/03/30 12:59:50;;;;;;;;;;;10.80;99.90;;;;;;5041255;28;19909;-74
2022/03/30 13:02:17;;;;;;;;;;;10.20;99.90;;;;;;5033585;28;20324;-74
2022/03/30 13:04:56;;;;;;;;;;;9.90;99.90;;;;;;5032083;28;19948;-74
2022/03/30 13:07:25;;;;;;;;;;;9.40;99.90;;;;;;5042732;28;19963;-74
2022/03/30 13:10:10;;;;;;;;;;;9.20;99.90;;;;;;5034953;28;19909;-74
2022/03/30 13:12:53;;;;;;;;;;;9.10;99.90;;;;;;5032223;28;19910;-75
2022/03/30 13:15:21;;;;;;;;;;;9.00;99.90;;;;;;5033437;28;19916;-75
2022/03/30 13:18:06;;;;;;;;;;;9.00;99.90;;;;;;5033160;28;19917;-74
2022/03/30 13:20:33;;;;;;;;;;;9.00;99.90;;;;;;5032252;28;20015;-72
2022/03/30 13:23:00;;;;;;;;;;;8.90;99.90;;;;;;5033239;28;19963;-73
2022/03/30 13:25:26;;;;;;;;;;;8.90;99.90;;;;;;5033363;28;19936;-75
2022/03/30 13:27:52;;;;;;;;;;;9.10;99.90;;;;;;5040580;28;20005;-74
2022/03/30 13:30:17;;;;;;;;;;;8.90;99.90;;;;;;5044488;28;20370;-75
2022/03/30 13:32:43;;;;;;;;;;;9.10;99.90;;;;;;5035037;28;19909;-74
2022/03/30 13:35:08;;;;;;;;;;;9.40;99.90;;;;;;5049769;28;19931;-73
2022/03/30 13:37:35;;;;;;;;;;;9.80;99.90;;;;;;5035696;28;19967;-73
2022/03/30 13:40:01;;;;;;;;;;;9.60;99.90;;;;;;5032778;28;20088;-73
2022/03/30 13:42:26;;;;;;;;;;;9.90;99.90;;;;;;5049434;28;19913;-73
2022/03/30 13:44:51;;;;;;;;;;;9.90;99.90;;;;;;5052021;28;19916;-73
2022/03/30 13:47:17;;;;;;;;;;;10.20;99.90;;;;;;5051774;28;19912;-74
2022/03/30 13:49:44;;;;;;;;;;;10.30;99.90;;;;;;5045426;28;20004;-74
2022/03/30 13:52:13;;;;;;;;;;;10.30;99.90;;;;;;5054831;28;19909;-74
2022/03/30 13:54:38;;;;;;;;;;;10.80;99.90;;;;;;5035781;28;20437;-73
2022/03/30 13:57:04;;;;;;;;;;;10.40;99.90;;;;;;5049279;28;20003;-74
2022/03/30 13:59:29;;;;;;;;;;;10.40;99.90;;;;;;5040786;28;19944;-74
2022/03/30 14:01:55;;;;;;;;;;;10.40;99.90;;;;;;5040262;28;19912;-73
2022/03/30 14:04:21;;;;;;;;;;;10.10;99.90;;;;;;5042351;28;19909;-73
2022/03/30 14:06:46;;;;;;;;;;;9.80;99.90;;;;;;5032431;28;19972;-74
2022/03/30 14:09:12;;;;;;;;;;;9.40;99.90;;;;;;5031889;28;19909;-74
2022/03/30 14:11:37;;;;;;;;;;;9.60;99.90;;;;;;5032213;28;19913;-74
2022/03/30 14:14:05;;;;;;;;;;;9.40;99.90;;;;;;5032506;28;19978;-73
2022/03/30 14:16:30;;;;;;;;;;;9.40;99.90;;;;;;5032248;28;19917;-74
2022/03/30 14:18:55;;;;;;;;;;;9.40;99.90;;;;;;5032526;28;19909;-74
2022/03/30 14:21:21;;;;;;;;;;;9.50;99.90;;;;;;5032481;28;20108;-74
2022/03/30 14:23:46;;;;;;;;;;;9.30;99.90;;;;;;5032446;28;19909;-74
2022/03/30 14:26:12;;;;;;;;;;;9.10;99.90;;;;;;5038764;28;19908;-75
2022/03/30 14:28:38;;;;;;;;;;;9.20;99.90;;;;;;5040975;28;19920;-74
2022/03/30 14:31:04;;;;;;;;;;;9.20;99.90;;;;;;5032038;28;20274;-74